Time;durP1;ratioP1;P1;durP2;ratioP2;P2;SDS_P1;SDS_P2;PMS_P1;PMS_P2;Temp;Humidity;BMP_temperature;BMP_pressure;BME280_temperature;BME280_humidity;BME280_pressure;Samples;Min_cycle;Max_cycle;Signal;HPM_P1;HPM_P2
2021/01/08 04:33:04;;;;;;;21.67;12.97;;;;;;;6.48;58.80;98486.28;7043542;23;20239;-82
2021/01/08 04:36:25;;;;;;;21.73;14.03;;;;;;;6.57;58.00;98494.03;6835243;29;20216;-82
2021/01/08 04:39:47;;;;;;;17.83;12.60;;;;;;;6.51;57.55;98477.88;6836771;29;20221;-83
2021/01/08 04:43:08;;;;;;;18.67;12.87;;;;;;;6.23;57.75;98487.59;6838416;29;20239;-82
2021/01/08 04:46:31;;;;;;;20.00;14.23;;;;;;;6.42;58.20;98476.34;6847751;28;20205;-83
2021/01/08 04:49:53;;;;;;;18.77;11.80;;;;;;;6.59;57.07;98491.16;6837082;29;20271;-83
2021/01/08 04:53:14;;;;;;;17.87;12.90;;;;;;;6.45;57.07;98473.25;6836782;28;20227;-83
2021/01/08 04:56:39;;;;;;;19.10;12.67;;;;;;;6.44;57.17;98485.00;6837119;28;20205;-83
2021/01/08 05:00:00;;;;;;;17.97;12.37;;;;;;;6.23;57.03;98442.94;6836074;28;20221;-82
2021/01/08 05:03:21;;;;;;;14.57;10.70;;;;;;;6.15;57.35;98483.19;6836438;29;20242;-84
2021/01/08 05:06:44;;;;;;;14.17;11.17;;;;;;;6.31;57.79;98479.47;6836224;29;20214;-83
2021/01/08 05:10:06;;;;;;;15.20;10.70;;;;;;;5.93;57.62;98437.78;6835231;29;20273;-83
2021/01/08 05:13:34;;;;;;;15.43;10.63;;;;;;;5.85;57.66;98443.22;6836050;29;20240;-83
2021/01/08 05:16:56;;;;;;;16.70;11.60;;;;;;;5.92;58.10;98482.44;6836890;29;20215;-82
2021/01/08 05:20:17;;;;;;;16.77;11.80;;;;;;;6.29;57.18;98478.81;6836580;29;20301;-84
2021/01/08 05:23:39;;;;;;;15.93;11.03;;;;;;;5.97;57.51;98482.72;6836825;29;20251;-83
2021/01/08 05:27:05;;;;;;;16.37;10.10;;;;;;;5.81;57.27;98420.53;6837361;28;20734;-86
2021/01/08 05:30:27;;;;;;;14.47;11.20;;;;;;;6.34;56.42;98458.53;6836999;28;20211;-84
2021/01/08 05:33:49;;;;;;;14.03;10.37;;;;;;;6.04;56.11;98410.56;6835368;29;20241;-84
2021/01/08 05:37:14;;;;;;;12.43;9.20;;;;;;;6.17;55.71;98453.53;6836835;29;20238;-81
2021/01/08 05:40:39;;;;;;;11.83;9.53;;;;;;;6.61;55.77;98487.25;6841312;29;20235;-83
2021/01/08 05:44:01;;;;;;;11.27;9.00;;;;;;;6.60;55.24;98484.78;6827311;29;20567;-81
2021/01/08 05:47:22;;;;;;;11.77;9.33;;;;;;;6.57;55.33;98490.50;6811142;29;20216;-83
2021/01/08 05:50:44;;;;;;;12.93;9.03;;;;;;;6.57;55.39;98485.16;6819797;29;20231;-85
2021/01/08 05:54:06;;;;;;;13.77;9.40;;;;;;;6.60;55.59;98495.50;6819636;29;20274;-82
2021/01/08 05:57:28;;;;;;;11.97;9.47;;;;;;;6.30;55.63;98449.19;6809369;29;20208;-82
2021/01/08 06:00:56;;;;;;;11.37;8.33;;;;;;;6.65;55.68;98493.06;6816949;29;20248;-82
2021/01/08 06:04:17;;;;;;;10.70;8.80;;;;;;;6.31;54.72;98445.50;6835509;28;20228;-82
2021/01/08 06:07:39;;;;;;;12.07;8.83;;;;;;;6.27;55.05;98420.13;6834859;28;20231;-82
2021/01/08 06:11:01;;;;;;;16.13;10.23;;;;;;;6.63;55.65;98498.63;6834365;28;20243;-83
2021/01/08 06:14:23;;;;;;;13.70;9.87;;;;;;;6.61;55.73;98497.97;6840472;28;20215;-82
2021/01/08 06:17:48;;;;;;;14.43;10.07;;;;;;;6.74;55.72;98490.13;6839819;28;20243;-83
2021/01/08 06:21:10;;;;;;;15.40;9.67;;;;;;;6.60;55.47;98485.59;6838997;28;20277;-81
2021/01/08 06:24:31;;;;;;;15.27;10.97;;;;;;;6.28;56.04;98469.13;6839525;28;20703;-83
2021/01/08 06:27:54;;;;;;;14.23;10.50;;;;;;;6.51;56.00;98492.09;6836319;28;20684;-82
2021/01/08 06:31:31;;;;;;;13.87;10.33;;;;;;;6.62;55.90;98515.72;6812212;29;20283;-83
2021/01/08 06:34:54;;;;;;;11.87;9.50;;;;;;;6.01;57.29;98505.41;6813231;29;20212;-82
2021/01/08 06:38:19;;;;;;;11.47;8.67;;;;;;;6.36;56.32;98498.50;6814092;29;20213;-83
2021/01/08 06:41:40;;;;;;;13.87;9.50;;;;;;;6.59;55.40;98491.16;6813026;29;20227;-83
2021/01/08 06:45:01;;;;;;;14.17;10.40;;;;;;;6.58;56.04;98513.59;6812566;29;20224;-83
2021/01/08 06:48:25;;;;;;;13.10;9.53;;;;;;;6.44;55.39;98477.81;6817017;29;20214;-83
2021/01/08 06:51:46;;;;;;;12.37;9.40;;;;;;;6.76;55.23;98516.69;6832611;29;20273;-86
2021/01/08 06:55:09;;;;;;;9.70;8.03;;;;;;;6.21;54.91;98454.84;6818879;29;20210;-83
2021/01/08 06:58:36;;;;;;;11.50;7.67;;;;;;;6.25;55.59;98501.63;6819870;29;20259;-83
2021/01/08 07:02:01;;;;;;;11.53;7.73;;;;;;;6.09;56.16;98499.97;6826303;29;20235;-82
2021/01/08 07:05:23;;;;;;;10.70;7.73;;;;;;;6.02;55.92;98482.97;6814960;29;20213;-82
2021/01/08 07:08:44;;;;;;;9.23;7.07;;;;;;;5.92;56.05;98503.84;6813342;29;20242;-81
2021/01/08 07:12:08;;;;;;;9.67;7.47;;;;;;;6.30;55.97;98521.47;6818801;29;20232;-82
2021/01/08 07:15:32;;;;;;;11.40;7.57;;;;;;;6.19;55.52;98526.47;6819298;29;20240;-82
2021/01/08 07:19:03;;;;;;;9.20;7.23;;;;;;;6.21;55.84;98527.09;6813288;29;20699;-82
2021/01/08 07:22:31;;;;;;;7.43;6.63;;;;;;;5.99;54.95;98495.91;6811877;28;20241;-83
2021/01/08 07:25:53;;;;;;;7.70;6.43;;;;;;;6.33;54.90;98526.47;6812937;29;20226;-81
2021/01/08 07:29:15;;;;;;;7.50;6.70;;;;;;;5.77;56.22;98500.28;6812789;29;20706;-83
2021/01/08 07:32:38;;;;;;;8.53;6.53;;;;;;;6.07;55.53;98502.00;6819832;29;20575;-82
2021/01/08 07:36:18;;;;;;;8.73;6.73;;;;;;;6.29;55.08;98510.94;6838748;28;20213;-84
2021/01/08 07:39:41;;;;;;;9.80;7.23;;;;;;;6.45;54.90;98535.69;6838913;29;20199;-87
2021/01/08 07:43:04;;;;;;;7.80;6.50;;;;;;;6.13;55.62;98527.22;6837992;29;20227;-82
2021/01/08 07:46:33;;;;;;;8.67;6.70;;;;;;;6.13;55.82;98529.88;6838341;28;20208;-82
2021/01/08 07:50:08;;;;;;;9.10;6.57;;;;;;;6.25;54.96;98529.22;6828209;29;20210;-84
2021/01/08 07:53:50;;;;;;;8.37;6.60;;;;;;;6.46;54.81;98544.53;6812333;29;20232;-82
2021/01/08 07:57:12;;;;;;;8.90;7.10;;;;;;;6.23;55.08;98546.47;6814034;29;20209;-83
2021/01/08 08:00:33;;;;;;;7.10;6.27;;;;;;;6.36;55.04;98560.06;6811769;29;20238;-82
2021/01/08 08:03:59;;;;;;;8.60;6.90;;;;;;;5.83;55.96;98534.34;6815906;29;20253;-81
2021/01/08 08:07:22;;;;;;;8.13;5.83;;;;;;;6.25;55.59;98566.69;6834266;29;20249;-84
2021/01/08 08:10:43;;;;;;;7.67;6.53;;;;;;;5.26;55.34;98390.69;6820393;29;20224;-83
2021/01/08 08:14:06;;;;;;;7.83;6.20;;;;;;;6.15;55.52;98573.34;6820957;29;20213;-81
2021/01/08 08:17:27;;;;;;;7.60;6.10;;;;;;;6.60;54.51;98573.19;6839059;28;20209;-82
2021/01/08 08:20:48;;;;;;;7.07;5.90;;;;;;;6.60;54.36;98571.31;6836689;28;20226;-85
2021/01/08 08:24:10;;;;;;;6.00;5.10;;;;;;;6.63;54.16;98583.50;6823056;28;20286;-83
2021/01/08 08:27:31;;;;;;;7.73;6.43;;;;;;;6.56;54.38;98567.38;6838002;29;20261;-84
2021/01/08 08:30:53;;;;;;;8.40;6.90;;;;;;;6.41;55.28;98587.94;6810540;28;20236;-83
2021/01/08 08:34:29;;;;;;;7.30;6.50;;;;;;;6.81;53.85;98555.31;6824574;28;20214;-84
2021/01/08 08:37:52;;;;;;;7.10;6.20;;;;;;;6.61;54.26;98593.59;6827719;29;20552;-85
2021/01/08 08:41:13;;;;;;;6.37;5.57;;;;;;;6.39;55.04;98602.53;6810166;29;20247;-84
2021/01/08 08:44:41;;;;;;;6.97;6.00;;;;;;;6.81;53.46;98578.59;6809481;29;20607;-85
2021/01/08 08:48:07;;;;;;;6.13;5.53;;;;;;;6.82;53.83;98607.88;6813633;29;20286;-84
2021/01/08 08:51:28;;;;;;;7.10;5.83;;;;;;;6.67;54.67;98607.06;6834465;28;20233;-84
2021/01/08 08:54:49;;;;;;;7.47;5.73;;;;;;;6.57;53.82;98593.13;6829947;28;20281;-84
2021/01/08 08:58:11;;;;;;;7.07;5.73;;;;;;;6.43;54.96;98618.03;6835120;28;20202;-84
2021/01/08 09:01:39;;;;;;;6.27;5.67;;;;;;;5.64;55.21;98499.22;6835359;28;20598;-85
2021/01/08 09:05:02;;;;;;;8.07;6.00;;;;;;;6.23;54.82;98565.22;6835732;29;20209;-84
2021/01/08 09:08:26;;;;;;;7.30;5.93;;;;;;;6.48;54.18;98612.16;6819854;29;20569;-86
2021/01/08 09:11:56;;;;;;;7.40;6.33;;;;;;;6.62;54.74;98581.84;6807768;29;20226;-86
2021/01/08 09:15:21;;;;;;;7.80;6.70;;;;;;;6.81;54.69;98605.38;6832555;29;20215;-85
2021/01/08 09:18:45;;;;;;;7.67;6.27;;;;;;;6.35;56.83;98612.78;6825092;29;20206;-87
2021/01/08 09:22:08;;;;;;;6.63;5.73;;;;;;;6.50;55.75;98597.56;6815821;29;20259;-88
2021/01/08 09:25:30;;;;;;;8.30;6.10;;;;;;;6.24;57.08;98612.41;6836345;28;20218;-89
2021/01/08 09:28:52;;;;;;;8.53;6.53;;;;;;;6.71;56.08;98586.09;6835659;29;20217;-87
2021/01/08 09:32:30;;;;;;;8.70;7.77;;;;;;;7.08;54.57;98616.25;6834112;28;20245;-88
2021/01/08 09:35:52;;;;;;;9.20;7.03;;;;;;;6.95;55.35;98626.00;6835877;29;20333;-88
2021/01/08 09:39:15;;;;;;;9.53;6.73;;;;;;;6.58;56.20;98629.59;6824473;29;20205;-88
2021/01/08 09:42:36;;;;;;;7.60;6.50;;;;;;;7.07;54.40;98624.50;6810819;29;20330;-89
2021/01/08 09:46:02;;;;;;;8.77;6.77;;;;;;;6.93;55.25;98617.28;6811057;29;20211;-87
2021/01/08 09:49:40;;;;;;;10.17;6.70;;;;;;;6.85;54.81;98614.72;6811460;28;20295;-87
2021/01/08 09:53:09;;;;;;;10.80;7.03;;;;;;;5.86;56.24;98485.84;6814541;29;20233;-87
2021/01/08 09:56:34;;;;;;;8.50;6.87;;;;;;;6.87;55.69;98634.13;6815077;29;20212;-87
2021/01/08 09:59:57;;;;;;;8.97;7.03;;;;;;;6.92;55.59;98635.25;6838005;29;20231;-87
2021/01/08 10:03:19;;;;;;;9.10;6.77;;;;;;;7.01;55.78;98638.66;6841024;28;20239;-90
2021/01/08 10:06:56;;;;;;;6.83;6.13;;;;;;;7.15;56.01;98635.94;6840747;29;20203;-84
2021/01/08 10:10:35;;;;;;;10.23;7.63;;;;;;;6.49;58.56;98625.34;6842819;29;20192;-87
2021/01/08 10:14:04;;;;;;;9.70;6.63;;;;;;;6.82;56.89;98636.50;6841216;29;20190;-85
2021/01/08 10:17:25;;;;;;;9.33;6.53;;;;;;;6.86;55.75;98589.59;6840633;28;20239;-88
2021/01/08 10:20:48;;;;;;;9.00;6.80;;;;;;;6.66;56.93;98634.03;6841859;29;20232;-84
2021/01/08 10:24:10;;;;;;;7.67;6.87;;;;;;;7.20;58.56;98635.38;6840151;28;20235;-89
2021/01/08 10:27:31;;;;;;;9.13;6.60;;;;;;;6.28;57.88;98510.13;6840198;29;20208;-90
2021/01/08 10:30:54;;;;;;;9.03;6.70;;;;;;;6.98;55.28;98545.22;6832610;28;20239;-87
2021/01/08 10:34:15;;;;;;;9.17;7.17;;;;;;;6.82;57.27;98567.69;6839029;29;20210;-87
2021/01/08 10:37:37;;;;;;;6.57;5.87;;;;;;;7.57;54.92;98619.09;6839007;28;20832;-86
2021/01/08 10:40:58;;;;;;;8.93;6.43;;;;;;;7.41;55.78;98627.34;6838319;28;20236;-86
2021/01/08 10:44:19;;;;;;;7.33;6.40;;;;;;;7.36;56.38;98595.75;6839670;28;20569;-86
2021/01/08 10:47:41;;;;;;;8.87;7.00;;;;;;;7.50;55.05;98623.56;6839405;29;20232;-86
2021/01/08 10:51:02;;;;;;;13.07;7.47;;;;;;;7.32;54.84;98607.88;6837997;28;20242;-85
2021/01/08 10:54:23;;;;;;;13.33;8.60;;;;;;;6.49;56.02;98502.16;6838444;28;20211;-85
2021/01/08 10:57:44;;;;;;;11.10;7.63;;;;;;;7.20;56.16;98627.34;6837698;28;20265;-88
2021/01/08 11:01:06;;;;;;;7.03;6.33;;;;;;;7.00;56.69;98626.25;6837774;28;20231;-84
2021/01/08 11:04:28;;;;;;;6.63;5.87;;;;;;;6.89;57.22;98627.56;6833429;29;20230;-86
2021/01/08 11:07:49;;;;;;;6.00;4.77;;;;;;;6.17;56.72;98523.97;6838019;28;20211;-85
2021/01/08 11:11:10;;;;;;;5.43;4.93;;;;;;;6.99;55.84;98605.81;6837443;28;20230;-86
2021/01/08 11:14:32;;;;;;;13.27;5.17;;;;;;;7.17;55.25;98614.28;6826977;28;20211;-87
2021/01/08 11:17:53;;;;;;;5.90;4.73;;;;;;;6.91;55.96;98589.84;6811622;29;20202;-86
2021/01/08 11:21:19;;;;;;;5.13;4.63;;;;;;;7.15;54.52;98606.47;6810888;29;20229;-87
2021/01/08 11:24:40;;;;;;;5.60;4.90;;;;;;;6.88;55.71;98601.78;6811189;29;20226;-86
2021/01/08 11:28:01;;;;;;;6.60;5.23;;;;;;;7.27;55.36;98598.75;6811994;29;20222;-86
2021/01/08 11:31:30;;;;;;;5.87;5.10;;;;;;;7.20;55.47;98601.34;6826476;29;20244;-86
2021/01/08 11:34:51;;;;;;;6.60;6.00;;;;;;;7.30;55.90;98609.09;6832602;28;20331;-86
2021/01/08 11:38:13;;;;;;;7.40;5.97;;;;;;;6.93;56.59;98582.44;6837435;29;20232;-86
2021/01/08 11:41:34;;;;;;;8.20;6.37;;;;;;;6.97;57.90;98598.00;6812667;28;20240;-86
2021/01/08 11:44:55;;;;;;;6.93;6.20;;;;;;;6.63;58.49;98602.25;6811552;29;20559;-86
2021/01/08 11:48:16;;;;;;;6.87;5.83;;;;;;;6.95;57.45;98597.31;6811084;29;20240;-86
2021/01/08 11:51:37;;;;;;;7.53;6.60;;;;;;;7.05;57.48;98605.91;6810892;29;20226;-86
2021/01/08 11:54:59;;;;;;;6.83;6.10;;;;;;;7.44;56.87;98592.97;6810935;29;20582;-86
2021/01/08 11:58:20;;;;;;;6.27;5.63;;;;;;;7.10;57.19;98595.47;6810590;29;20218;-85
2021/01/08 12:01:42;;;;;;;6.80;6.20;;;;;;;7.36;56.57;98614.53;6810664;29;20643;-86
2021/01/08 12:05:03;;;;;;;8.33;7.43;;;;;;;7.08;57.02;98581.41;6810768;29;20211;-85
2021/01/08 12:08:24;;;;;;;7.80;6.50;;;;;;;6.73;57.27;98581.38;6810121;29;20211;-86
2021/01/08 12:11:47;;;;;;;7.03;6.00;;;;;;;6.84;56.72;98616.56;6810085;29;20230;-87
2021/01/08 12:15:09;;;;;;;8.17;6.80;;;;;;;7.20;56.87;98617.41;6810264;29;20212;-86
2021/01/08 12:18:30;;;;;;;8.23;6.93;;;;;;;7.23;56.34;98621.59;6810321;29;20551;-86
2021/01/08 12:21:51;;;;;;;6.60;5.90;;;;;;;6.00;56.87;98482.34;6809277;29;20289;-86
2021/01/08 12:25:13;;;;;;;29.97;16.83;;;;;;;7.00;56.67;98624.41;6809496;29;20208;-86
2021/01/08 12:28:35;;;;;;;9.73;7.23;;;;;;;6.93;56.48;98598.53;6809936;29;20226;-86
2021/01/08 12:32:00;;;;;;;13.10;9.77;;;;;;;7.00;56.16;98591.41;6808856;29;20614;-87
2021/01/08 12:35:22;;;;;;;7.33;6.50;;;;;;;7.33;55.71;98627.47;6809722;29;20209;-86
2021/01/08 12:38:43;;;;;;;10.90;8.87;;;;;;;7.52;55.09;98611.63;6810432;29;20222;-86
2021/01/08 12:42:05;;;;;;;9.43;7.00;;;;;;;7.26;55.09;98611.31;6810113;29;20240;-84
2021/01/08 12:45:27;;;;;;;8.50;7.33;;;;;;;7.20;56.01;98632.69;6810234;29;20659;-83
2021/01/08 12:48:48;;;;;;;7.83;6.40;;;;;;;5.66;55.55;98393.75;6810313;29;20221;-85
2021/01/08 12:52:09;;;;;;;7.00;5.60;;;;;;;6.55;54.73;98579.06;6808015;29;20287;-85
2021/01/08 12:55:30;;;;;;;8.40;7.17;;;;;;;6.78;54.33;98625.34;6809028;29;20202;-84
2021/01/08 12:58:52;;;;;;;12.33;9.73;;;;;;;6.96;54.61;98631.16;6809225;29;20220;-84
2021/01/08 13:02:14;;;;;;;6.57;5.80;;;;;;;6.93;54.33;98609.25;6808286;29;20239;-83
2021/01/08 13:05:35;;;;;;;8.47;6.60;;;;;;;7.13;53.11;98618.38;6808691;29;20611;-84
2021/01/08 13:08:57;;;;;;;13.47;8.10;;;;;;;6.74;54.45;98615.19;6815030;29;20284;-84
2021/01/08 13:12:18;;;;;;;6.63;5.30;;;;;;;6.86;53.17;98606.50;6822951;28;20224;-84
2021/01/08 13:15:39;;;;;;;8.10;7.30;;;;;;;7.00;52.97;98621.72;6807390;29;20207;-83
2021/01/08 13:19:01;;;;;;;8.87;7.53;;;;;;;7.42;51.80;98616.44;6808291;29;20220;-84
2021/01/08 13:22:22;;;;;;;7.90;5.07;;;;;;;6.95;51.94;98623.31;6808031;29;20301;-83
2021/01/08 13:25:43;;;;;;;6.60;5.30;;;;;;;6.89;52.88;98622.19;6808343;29;20216;-84
2021/01/08 13:29:05;;;;;;;8.77;6.40;;;;;;;5.98;52.55;98476.34;6808277;29;20204;-85
2021/01/08 13:32:26;;;;;;;7.13;6.30;;;;;;;6.76;52.86;98634.56;6808473;29;20237;-85
2021/01/08 13:35:48;;;;;;;7.87;6.13;;;;;;;7.33;51.60;98620.28;6830061;28;20216;-84
2021/01/08 13:39:10;;;;;;;8.83;6.33;;;;;;;7.69;50.34;98622.91;6841252;28;20213;-84
2021/01/08 13:42:31;;;;;;;14.23;9.60;;;;;;;7.88;50.50;98635.69;6858842;28;20698;-84
2021/01/08 13:45:52;;;;;;;8.97;6.73;;;;;;;7.66;50.64;98626.00;6833894;28;20262;-85
2021/01/08 13:49:15;;;;;;;12.60;6.90;;;;;;;7.25;51.58;98641.81;6816207;29;20213;-86
2021/01/08 13:52:37;;;;;;;8.03;6.00;;;;;;;7.62;50.94;98632.75;6818484;29;20255;-85
2021/01/08 13:55:59;;;;;;;7.43;6.10;;;;;;;7.21;52.15;98643.25;6834128;29;20669;-85
2021/01/08 13:59:28;;;;;;;6.90;5.90;;;;;;;7.18;51.56;98624.03;6834692;28;20212;-85
2021/01/08 14:02:49;;;;;;;9.07;6.13;;;;;;;6.98;51.74;98620.25;6808326;29;20889;-86
2021/01/08 14:06:18;;;;;;;9.07;5.97;;;;;;;7.54;51.31;98651.66;6807233;29;20212;-85
2021/01/08 14:09:40;;;;;;;8.30;6.87;;;;;;;7.23;51.16;98657.28;6816593;29;20546;-86
2021/01/08 14:13:01;;;;;;;8.67;7.10;;;;;;;7.05;51.81;98661.38;6822147;28;20286;-86
2021/01/08 14:16:23;;;;;;;6.30;5.70;;;;;;;6.86;51.66;98609.19;6812165;29;20574;-87
2021/01/08 14:19:44;;;;;;;6.47;5.77;;;;;;;6.91;51.38;98665.75;6832532;29;20676;-88
2021/01/08 14:23:05;;;;;;;13.83;9.13;;;;;;;7.01;52.15;98636.78;6835814;28;20240;-87
2021/01/08 14:26:28;;;;;;;10.93;8.40;;;;;;;7.66;50.75;98663.56;6820091;28;20201;-88
2021/01/08 14:29:49;;;;;;;11.17;8.00;;;;;;;7.36;51.22;98672.72;6815983;29;20549;-87
2021/01/08 14:33:10;;;;;;;9.70;6.60;;;;;;;7.39;51.73;98664.28;6816108;28;20659;-82
2021/01/08 14:36:32;;;;;;;10.40;7.30;;;;;;;7.28;51.38;98662.06;6841383;28;20219;-86
2021/01/08 14:39:53;;;;;;;8.07;6.80;;;;;;;6.73;50.99;98619.69;6843357;29;20219;-86
2021/01/08 14:43:15;;;;;;;8.03;6.43;;;;;;;7.15;51.66;98645.81;6818404;28;20233;-87
2021/01/08 14:46:38;;;;;;;10.33;6.93;;;;;;;6.31;51.67;98571.31;6814740;29;20213;-86
2021/01/08 14:49:59;;;;;;;7.83;6.43;;;;;;;6.81;52.17;98667.00;6816228;29;20209;-86
2021/01/08 14:53:20;;;;;;;9.20;6.77;;;;;;;6.74;51.89;98605.31;6814418;29;20229;-86
2021/01/08 14:56:45;;;;;;;8.80;6.57;;;;;;;7.24;52.11;98685.75;6814540;29;20688;-86
2021/01/08 15:00:17;;;;;;;7.37;6.03;;;;;;;5.51;52.95;98509.72;6817525;29;20218;-85
2021/01/08 15:03:41;;;;;;;8.87;6.77;;;;;;;6.13;53.06;98570.84;6814381;29;20274;-85
2021/01/08 15:07:03;;;;;;;8.20;6.50;;;;;;;5.68;52.95;98536.16;6813515;29;20205;-85
2021/01/08 15:10:24;;;;;;;8.73;6.30;;;;;;;5.20;53.80;98539.19;6813557;29;20212;-85
2021/01/08 15:13:46;;;;;;;6.30;5.60;;;;;;;6.93;53.50;98705.72;6814294;29;20213;-83
2021/01/08 15:17:08;;;;;;;9.50;6.50;;;;;;;6.76;53.59;98707.75;6814389;29;20267;-83
2021/01/08 15:20:29;;;;;;;8.77;6.17;;;;;;;6.76;53.70;98704.25;6824884;29;20222;-83
2021/01/08 15:23:53;;;;;;;7.87;6.87;;;;;;;6.98;53.99;98719.41;6838172;28;20226;-83
2021/01/08 15:27:14;;;;;;;9.97;7.47;;;;;;;6.75;53.72;98689.19;6841093;29;20657;-84
2021/01/08 15:30:36;;;;;;;8.97;7.33;;;;;;;7.26;53.41;98717.75;6851740;28;20238;-83
2021/01/08 15:33:58;;;;;;;10.03;7.40;;;;;;;6.88;53.34;98655.38;6847611;28;20689;-84
2021/01/08 15:37:19;;;;;;;16.87;9.90;;;;;;;7.10;52.86;98715.25;6837997;29;20296;-82
2021/01/08 15:40:40;;;;;;;29.83;16.27;;;;;;;7.26;52.65;98709.69;6838710;29;20235;-84
2021/01/08 15:44:01;;;;;;;21.70;12.13;;;;;;;6.95;53.49;98725.97;6838136;28;20287;-84
2021/01/08 15:47:23;;;;;;;13.53;10.23;;;;;;;7.12;52.82;98735.50;6837642;29;20207;-83
2021/01/08 15:50:47;;;;;;;12.03;8.77;;;;;;;6.95;53.31;98736.69;6837154;29;20645;-85
2021/01/08 15:54:09;;;;;;;14.80;9.10;;;;;;;7.01;53.71;98733.28;6827371;28;20658;-83
2021/01/08 15:57:30;;;;;;;10.13;7.50;;;;;;;6.86;54.01;98734.28;6820388;28;20216;-84
2021/01/08 16:00:52;;;;;;;8.33;7.23;;;;;;;6.76;53.99;98749.78;6827330;29;20230;-84
2021/01/08 16:04:13;;;;;;;8.20;6.80;;;;;;;7.02;54.18;98755.56;6832538;29;20274;-83
2021/01/08 16:07:36;;;;;;;10.13;8.40;;;;;;;6.92;55.22;98741.59;6838166;28;20208;-83
2021/01/08 16:10:57;;;;;;;15.23;9.90;;;;;;;6.82;56.01;98739.19;6837757;29;20240;-87
2021/01/08 16:14:18;;;;;;;25.30;14.03;;;;;;;6.98;56.01;98762.28;6837761;28;20259;-83
2021/01/08 16:17:39;;;;;;;17.47;11.63;;;;;;;6.42;57.94;98765.53;6837830;28;20592;-83
2021/01/08 16:21:00;;;;;;;13.00;9.07;;;;;;;6.78;57.15;98737.06;6836567;28;20862;-82
2021/01/08 16:24:22;;;;;;;15.67;11.63;;;;;;;7.37;56.08;98766.38;6837612;29;20584;-82
2021/01/08 16:27:44;;;;;;;12.93;9.00;;;;;;;7.25;55.82;98767.84;6833552;28;20212;-83
2021/01/08 16:31:05;;;;;;;10.67;8.53;;;;;;;6.67;57.78;98741.00;6810624;29;20244;-86
2021/01/08 16:34:26;;;;;;;9.03;6.80;;;;;;;7.21;56.93;98779.13;6812668;29;20218;-82
2021/01/08 16:37:47;;;;;;;11.67;8.43;;;;;;;7.01;57.82;98773.47;6812992;29;20582;-85
2021/01/08 16:41:10;;;;;;;10.80;8.00;;;;;;;7.23;55.93;98785.97;6811828;29;20239;-82
2021/01/08 16:44:31;;;;;;;12.23;8.50;;;;;;;6.68;57.34;98788.22;6813467;29;20210;-85
2021/01/08 16:47:54;;;;;;;14.47;9.23;;;;;;;6.22;57.99;98750.94;6815717;29;20692;-84
2021/01/08 16:51:15;;;;;;;11.40;8.77;;;;;;;6.22;58.05;98759.81;6812637;29;20228;-83
2021/01/08 16:54:36;;;;;;;13.10;8.40;;;;;;;6.82;57.55;98806.16;6812348;29;20210;-83
2021/01/08 16:58:00;;;;;;;10.37;7.70;;;;;;;6.71;57.41;98803.91;6811691;29;20217;-85
2021/01/08 17:01:23;;;;;;;10.93;8.47;;;;;;;7.02;56.39;98795.78;6811019;29;20240;-81
2021/01/08 17:04:44;;;;;;;9.07;7.47;;;;;;;6.97;55.75;98798.16;6812355;29;20235;-83
2021/01/08 17:08:06;;;;;;;11.97;8.87;;;;;;;6.42;57.50;98803.00;6814397;29;20215;-82
2021/01/08 17:11:27;;;;;;;11.90;9.73;;;;;;;6.47;57.51;98771.97;6823308;29;20234;-82
2021/01/08 17:14:49;;;;;;;16.77;12.63;;;;;;;6.45;58.22;98811.50;6842338;29;20235;-82
2021/01/08 17:18:10;;;;;;;22.23;14.67;;;;;;;6.37;58.19;98819.59;6840879;29;20225;-82
2021/01/08 17:21:33;;;;;;;25.67;17.70;;;;;;;6.22;58.22;98783.91;6840040;28;20226;-82
2021/01/08 17:24:54;;;;;;;20.07;12.90;;;;;;;6.23;59.05;98803.47;6840309;29;20239;-81
2021/01/08 17:28:15;;;;;;;16.27;12.47;;;;;;;6.75;57.70;98807.91;6835343;29;20260;-83
2021/01/08 17:31:37;;;;;;;15.27;9.57;;;;;;;6.23;58.01;98808.81;6835903;28;20249;-85
2021/01/08 17:34:58;;;;;;;14.17;9.70;;;;;;;6.49;57.19;98814.66;6831258;28;20207;-82
2021/01/08 17:38:19;;;;;;;13.97;9.17;;;;;;;6.52;57.57;98817.81;6814157;28;20624;-83
2021/01/08 17:41:40;;;;;;;10.97;8.63;;;;;;;6.45;57.80;98824.91;6821820;29;20592;-82
2021/01/08 17:45:03;;;;;;;16.67;12.00;;;;;;;6.60;57.25;98825.78;6818230;29;20236;-85
2021/01/08 17:48:25;;;;;;;12.13;10.20;;;;;;;6.44;57.61;98804.50;6814424;29;20246;-84
2021/01/08 17:51:46;;;;;;;13.00;10.27;;;;;;;6.57;57.92;98822.63;6819626;29;20224;-82
2021/01/08 17:55:09;;;;;;;15.77;10.80;;;;;;;6.23;58.86;98824.88;6811780;29;20208;-84
2021/01/08 17:58:30;;;;;;;13.37;10.70;;;;;;;6.33;58.27;98804.91;6810072;29;20216;-84
2021/01/08 18:01:51;;;;;;;12.57;10.20;;;;;;;6.20;59.00;98834.09;6809190;29;20226;-82
2021/01/08 18:05:14;;;;;;;19.37;11.77;;;;;;;6.36;58.74;98838.53;6809721;29;20240;-84
2021/01/08 18:08:35;;;;;;;13.63;11.10;;;;;;;6.22;58.66;98789.25;6814669;29;20286;-82
2021/01/08 18:11:56;;;;;;;13.90;10.43;;;;;;;6.45;58.54;98840.13;6817587;29;20238;-82
2021/01/08 18:15:18;;;;;;;13.07;9.57;;;;;;;6.52;58.30;98846.44;6819785;29;20208;-84
2021/01/08 18:18:39;;;;;;;15.43;11.97;;;;;;;6.57;57.85;98852.94;6821515;29;20290;-84
2021/01/08 18:22:01;;;;;;;16.37;11.33;;;;;;;6.43;58.17;98839.47;6820269;29;20227;-84
2021/01/08 18:25:23;;;;;;;14.00;10.77;;;;;;;5.70;57.90;98709.78;6820686;29;20238;-83
2021/01/08 18:28:44;;;;;;;13.07;10.57;;;;;;;6.06;57.61;98734.97;6825474;29;20242;-83
2021/01/08 18:32:06;;;;;;;16.80;12.10;;;;;;;6.76;57.94;98848.91;6845028;28;20294;-84
2021/01/08 18:35:27;;;;;;;17.33;13.33;;;;;;;6.65;57.57;98798.44;6832285;29;20220;-82
2021/01/08 18:38:49;;;;;;;21.17;14.97;;;;;;;7.02;57.18;98841.34;6824654;29;20610;-84
2021/01/08 18:42:11;;;;;;;32.37;23.23;;;;;;;7.24;56.44;98853.88;6818843;29;20226;-84
2021/01/08 18:45:32;;;;;;;20.67;13.90;;;;;;;6.99;56.35;98834.50;6819461;29;20216;-85
2021/01/08 18:48:53;;;;;;;12.33;9.60;;;;;;;7.13;55.54;98811.41;6819745;29;20244;-83
2021/01/08 18:52:15;;;;;;;15.27;11.13;;;;;;;7.16;56.04;98853.91;6819713;29;20232;-84
2021/01/08 18:55:37;;;;;;;12.17;9.73;;;;;;;6.79;57.03;98843.22;6819989;29;20211;-85
2021/01/08 18:58:59;;;;;;;15.37;11.13;;;;;;;6.40;58.38;98864.75;6819503;29;20207;-85
2021/01/08 19:02:20;;;;;;;14.40;11.60;;;;;;;6.04;58.39;98782.50;6824651;29;20328;-87
2021/01/08 19:05:46;;;;;;;16.43;12.30;;;;;;;6.76;58.46;98879.22;6845967;28;20250;-83
2021/01/08 19:09:08;;;;;;;20.10;13.67;;;;;;;7.00;58.14;98879.03;6848512;29;20195;-82
2021/01/08 19:12:30;;;;;;;22.23;15.03;;;;;;;7.03;57.01;98865.28;6823968;28;20228;-83
2021/01/08 19:15:53;;;;;;;18.37;12.43;;;;;;;6.93;57.67;98853.13;6820139;29;20201;-82
2021/01/08 19:19:14;;;;;;;20.67;15.10;;;;;;;6.48;58.38;98823.72;6835641;28;20277;-83
2021/01/08 19:22:36;;;;;;;18.93;13.10;;;;;;;6.49;58.68;98876.25;6834998;28;20643;-84
2021/01/08 19:25:57;;;;;;;17.80;11.43;;;;;;;6.62;58.86;98876.50;6844869;28;20219;-83
2021/01/08 19:29:19;;;;;;;15.00;11.40;;;;;;;6.72;58.87;98867.19;6845164;29;20238;-82
2021/01/08 19:32:43;;;;;;;13.27;10.57;;;;;;;6.39;58.11;98819.41;6828684;28;20603;-81
2021/01/08 19:36:06;;;;;;;15.63;12.70;;;;;;;6.54;59.33;98885.41;6834471;29;20218;-82
2021/01/08 19:39:28;;;;;;;16.67;13.30;;;;;;;6.56;58.51;98824.50;6819391;29;20193;-84
2021/01/08 19:42:49;;;;;;;23.63;17.63;;;;;;;6.90;58.40;98886.47;6818138;29;20237;-83
2021/01/08 19:46:11;;;;;;;23.40;16.17;;;;;;;6.20;58.40;98809.19;6818206;29;20215;-84
2021/01/08 19:49:35;;;;;;;23.50;16.63;;;;;;;6.50;59.20;98892.16;6818015;29;20259;-85
2021/01/08 19:52:56;;;;;;;25.47;18.33;;;;;;;6.63;59.43;98884.38;6817546;29;20226;-82
2021/01/08 19:56:17;;;;;;;25.40;17.03;;;;;;;6.42;59.34;98872.63;6818946;29;20300;-83
2021/01/08 19:59:39;;;;;;;24.87;17.10;;;;;;;6.36;59.91;98876.84;6818372;29;20207;-83
2021/01/08 20:03:01;;;;;;;25.67;17.67;;;;;;;6.30;60.00;98868.69;6819440;29;20244;-84
2021/01/08 20:06:22;;;;;;;22.93;15.00;;;;;;;6.46;59.45;98890.00;6818144;29;20216;-83
2021/01/08 20:09:44;;;;;;;21.27;14.23;;;;;;;6.40;59.76;98888.88;6818309;29;20209;-83
2021/01/08 20:13:05;;;;;;;23.57;15.00;;;;;;;6.39;59.96;98894.38;6842948;29;20374;-83
2021/01/08 20:16:27;;;;;;;22.97;15.73;;;;;;;6.57;60.13;98900.31;6846253;28;20210;-82
2021/01/08 20:19:49;;;;;;;22.37;15.77;;;;;;;6.47;59.91;98903.22;6817894;28;20209;-84
2021/01/08 20:23:10;;;;;;;22.00;15.67;;;;;;;6.73;59.34;98914.41;6819155;29;20234;-86
2021/01/08 20:26:36;;;;;;;27.17;15.90;;;;;;;6.48;59.05;98869.25;6839879;29;20207;-84